createdAt,value
2022-08-20T00:08:41.264Z,9
2022-08-20T00:18:48.507Z,13
2022-08-20T00:28:52.679Z,10
2022-08-20T00:39:00.073Z,11
2022-08-20T00:49:06.346Z,10
2022-08-20T00:59:13.479Z,9
2022-08-20T01:09:18.578Z,9
2022-08-20T01:20:16.631Z,11
2022-08-20T01:30:08.876Z,11
2022-08-20T01:40:16.639Z,9
2022-08-20T01:50:22.911Z,9
2022-08-20T02:00:29.828Z,10
2022-08-20T02:10:34.099Z,11
2022-08-20T02:20:41.040Z,9
2022-08-20T02:31:04.347Z,11
2022-08-20T02:41:06.505Z,10
2022-08-20T02:51:02.615Z,12
2022-08-20T03:01:14.035Z,11
2022-08-20T03:11:13.705Z,11
2022-08-20T03:21:22.917Z,11
2022-08-20T03:31:23.906Z,11
2022-08-20T03:41:29.343Z,12
2022-08-20T03:51:56.506Z,12
2022-08-20T04:02:28.542Z,11
2022-08-20T04:12:22.121Z,10
2022-08-20T04:22:28.482Z,12
2022-08-20T04:32:36.575Z,14
2022-08-20T04:42:38.326Z,16
2022-08-20T04:52:43.815Z,13
2022-08-20T05:02:54.825Z,14
2022-08-20T05:12:57.059Z,19
2022-08-20T05:23:06.861Z,12
2022-08-20T05:33:20.708Z,16
2022-08-20T05:43:15.707Z,17
2022-08-20T05:53:21.250Z,20
2022-08-20T06:03:26.395Z,18
2022-08-20T06:13:33.631Z,19
2022-08-20T06:23:45.552Z,17
2022-08-20T06:33:54.999Z,13
2022-08-20T06:43:59.455Z,18
2022-08-20T06:54:03.989Z,15
2022-08-20T07:04:12.495Z,16
2022-08-20T07:14:14.238Z,15
2022-08-20T07:24:20.520Z,10
2022-08-20T07:34:30.385Z,14
2022-08-20T07:44:33.134Z,14
2022-08-20T07:54:38.807Z,17
2022-08-20T08:04:43.914Z,18
2022-08-20T08:14:48.252Z,19
2022-08-20T08:25:05.788Z,19
2022-08-20T08:35:00.032Z,18
2022-08-20T08:45:05.662Z,15
2022-08-20T08:55:12.904Z,18
2022-08-20T09:05:42.293Z,18
2022-08-20T09:15:50.946Z,16
2022-08-20T09:25:57.211Z,15
2022-08-20T09:36:02.017Z,15
2022-08-20T09:46:09.251Z,11
2022-08-20T09:56:13.671Z,12
2022-08-20T10:06:21.287Z,11
2022-08-20T10:16:29.064Z,9
2022-08-20T10:26:30.795Z,8
2022-08-20T10:36:42.106Z,9
2022-08-20T10:46:42.853Z,11
2022-08-20T12:47:54.256Z,9
2022-08-20T12:57:59.498Z,11
2022-08-20T13:08:05.451Z,11
2022-08-20T13:18:25.920Z,12
2022-08-20T13:28:19.721Z,9
2022-08-20T13:38:24.669Z,10
2022-08-20T13:48:30.511Z,9
2022-08-20T13:58:37.858Z,8
2022-08-20T14:18:52.320Z,9
2022-08-20T14:28:54.717Z,7
2022-08-20T14:39:01.728Z,7
2022-08-20T14:49:08.038Z,6
2022-08-20T14:59:13.769Z,5
2022-08-20T15:09:18.682Z,6
2022-08-20T15:19:30.431Z,6
2022-08-20T15:29:29.814Z,10
2022-08-20T15:39:36.389Z,5
2022-08-20T15:49:42.326Z,6
2022-08-20T15:59:48.540Z,5
2022-08-20T16:09:53.788Z,5
2022-08-20T16:19:59.148Z,6
2022-08-20T16:30:04.911Z,6
2022-08-20T16:40:19.027Z,10
2022-08-20T16:50:16.058Z,6
2022-08-20T17:00:22.941Z,8
2022-08-20T17:10:33.935Z,9
2022-08-20T17:20:38.711Z,7
2022-08-20T17:30:50.428Z,8
2022-08-20T17:40:45.626Z,6
2022-08-20T17:50:50.716Z,7
2022-08-20T18:01:00.451Z,8
2022-08-20T18:11:06.682Z,9
2022-08-20T18:21:18.688Z,9
2022-08-20T18:31:19.032Z,6
2022-08-20T18:41:30.493Z,8
2022-08-20T18:51:29.704Z,7
2022-08-20T19:01:36.236Z,5
2022-08-20T19:11:41.829Z,7
2022-08-20T19:21:56.642Z,6
2022-08-20T19:31:50.408Z,10
2022-08-20T19:42:12.354Z,6
2022-08-20T19:52:11.053Z,7
2022-08-20T20:02:20.178Z,5
2022-08-20T20:12:20.919Z,5
2022-08-20T20:22:25.034Z,5
2022-08-20T20:32:31.097Z,5
2022-08-20T20:42:37.474Z,6
2022-08-20T20:52:51.160Z,5
2022-08-20T21:02:49.949Z,5
2022-08-20T21:12:56.521Z,8
2022-08-20T21:23:02.013Z,5
2022-08-20T21:33:08.262Z,6
2022-08-20T21:43:20.339Z,5
2022-08-20T21:53:49.051Z,6
2022-08-20T22:03:51.673Z,6
2022-08-20T22:13:52.473Z,4
2022-08-20T22:23:57.351Z,4
2022-08-20T22:34:03.357Z,5
2022-08-20T22:44:26.361Z,4
2022-08-20T22:54:18.643Z,5
2022-08-20T23:04:27.571Z,7
2022-08-20T23:14:30.466Z,5
2022-08-20T23:24:44.750Z,4
2022-08-20T23:34:43.626Z,5
2022-08-20T23:45:08.374Z,4
2022-08-20T23:55:02.536Z,6
